Eglon, Washington
Current Conditions -  °F | °C
As of 7:53 AM on Thursday 30 Oct 2014 (Local Time) from KPAE Reporting Station
Overcast Overcast  
Wind Chill: 58°   Ceiling: 9500
Heat Index: 58°   Visibility: 10mi
Dew Point: 46°   Wind: 7mph
Humidity: 65%   Direction: 130°SE
Pressure: 29.87"   Gusts: NA
Location:  47.8143°N, 122.527°W
Report Text: KPAE 301453Z 13006KT 10SM FEW055 OVC095 14/08 A2987 RMK AO2 SLP114 60000 T01440078 56019
Loading
Personal Weather Stations






























Interactive Weather Map
Tropical Storm Tracking
New forecast layout! Learn more

10-Day Weather Forecast

Advertisements
Track Severe Weather on mobile